Weather reports worldwide

Advertisment
Cabo Villano, Spain (8006): temperature & dewpoint: 01.08.2020 02:00:00 - 07.08.2020 02:00:00 (CEST)Cabo Villano, Spain (8006): wind speed & gusts: 01.08.2020 02:00:00 - 07.08.2020 02:00:00 (CEST)Cabo Villano, Spain (8006): wind direction: 01.08.2020 02:00:00 - 07.08.2020 02:00:00 (CEST)Cabo Villano, Spain (8006): precipitation: 01.08.2020 02:00:00 - 07.08.2020 02:00:00 (CEST)
Date & Time tt [°C] td [°C] ff [km/h] ff [kn] fx [km/h] fx [kn] dd rr [mm]
07.08.2020 02:00:00 18,5 15,5 16 9 24 13 NE -
07.08.2020 01:00:00 19,0 16,0 14 7 22 12 NE 0,0
07.08.2020 00:00:00 18,9 15,8 17 9 26 14 NE 0,0
06.08.2020 23:00:00 18,7 15,5 22 12 30 16 NNE 0,0
06.08.2020 22:00:00 18,5 15,2 17 9 28 15 NNE 0,0
06.08.2020 21:00:00 18,5 15,0 16 9 22 12 NNE 0,0
06.08.2020 20:00:00 18,6 14,5 11 6 27 15 NNE -
06.08.2020 19:00:00 19,5 15,2 18 10 27 15 N 0,0
06.08.2020 18:00:00 19,7 14,5 14 8 24 13 NNE 0,0
06.08.2020 17:00:00 20,4 14,3 15 8 24 13 NNE 0,0
06.08.2020 16:00:00 21,1 14,7 19 11 25 14 NNE 0,0
06.08.2020 15:00:00 21,3 15,2 22 12 27 14 NNE 0,0
06.08.2020 14:00:00 20,3 14,9 19 10 26 14 NNE -
06.08.2020 13:00:00 20,2 14,8 18 10 32 17 NNE 0,0
06.08.2020 12:00:00 20,2 15,4 27 14 33 18 NE 0,0
06.08.2020 11:00:00 19,2 15,3 25 13 36 19 NE 0,0
06.08.2020 10:00:00 18,2 15,1 28 15 39 21 NE 0,0
06.08.2020 09:00:00 17,7 15,0 27 15 32 18 NE 0,0
06.08.2020 08:00:00 17,7 15,0 22 12 28 15 NE -
06.08.2020 07:00:00 17,9 15,0 22 12 27 15 NE 0,0
06.08.2020 06:00:00 17,8 14,9 21 11 27 15 NE 0,0
06.08.2020 05:00:00 17,3 14,2 21 11 26 14 NE 0,0
06.08.2020 04:00:00 16,7 13,3 16 9 31 17 NE 0,0
06.08.2020 03:00:00 18,4 14,5 18 10 27 15 NE 0,0
06.08.2020 02:00:00 18,0 13,9 16 9 27 15 NE -
06.08.2020 01:00:00 18,1 14,0 15 8 24 13 NE 0,0
06.08.2020 00:00:00 18,4 14,3 15 8 26 14 NE 0,0
05.08.2020 23:00:00 18,6 14,2 16 9 28 15 NE 0,0
05.08.2020 22:00:00 18,5 14,4 19 10 26 14 NE 0,0
05.08.2020 21:00:00 18,6 14,0 21 12 24 13 NE 0,0
05.08.2020 20:00:00 19,4 14,2 19 10 21 12 NNE -
05.08.2020 19:00:00 19,9 14,5 16 9 20 11 NNE 0,0
05.08.2020 18:00:00 20,1 14,2 13 7 19 10 NNE 0,0
05.08.2020 17:00:00 20,8 14,7 15 8 18 10 NNE 0,0
05.08.2020 16:00:00 21,0 14,9 14 8 18 10 NNE 0,0
05.08.2020 15:00:00 20,4 14,5 13 7 20 11 NNE 0,0
05.08.2020 14:00:00 20,4 14,5 13 7 22 12 N -
05.08.2020 13:00:00 20,4 15,2 18 10 21 12 NNE 0,0
05.08.2020 12:00:00 20,3 16,6 16 8 19 10 NNE 0,0
05.08.2020 11:00:00 18,5 15,5 12 7 16 9 NE 0,0
05.08.2020 10:00:00 17,7 15,0 9 5 16 9 NE 0,0
05.08.2020 09:00:00 17,3 14,6 13 7 21 12 NE 0,0
05.08.2020 08:00:00 17,0 14,2 13 7 23 12 NE -
05.08.2020 07:00:00 16,5 13,8 14 8 20 11 N 0,0
05.08.2020 06:00:00 16,8 14,0 11 6 21 11 NNE 0,0
05.08.2020 05:00:00 16,8 14,0 12 6 24 13 NNE 0,0
05.08.2020 04:00:00 17,2 14,4 16 9 24 13 NNE 0,0
05.08.2020 03:00:00 17,7 15,0 16 9 23 13 NE 0,0
05.08.2020 02:00:00 17,9 15,2 18 10 24 13 NE -
05.08.2020 01:00:00 17,8 15,1 19 10 26 14 NE 0,0
05.08.2020 00:00:00 17,9 15,2 21 12 26 14 NE 0,0
04.08.2020 23:00:00 17,7 14,8 21 11 29 16 NE 0,0
04.08.2020 22:00:00 17,5 14,2 25 13 28 15 NE 0,0
04.08.2020 21:00:00 17,6 13,9 24 13 27 15 NNE 0,0
04.08.2020 20:00:00 18,1 13,8 24 13 29 16 NNE -
04.08.2020 19:00:00 18,4 13,3 21 11 26 14 NNE 0,0
04.08.2020 18:00:00 18,9 13,6 21 11 26 14 NNE 0,0
04.08.2020 17:00:00 19,4 13,6 21 11 26 14 NNE 0,0
04.08.2020 16:00:00 20,2 14,5 16 9 23 13 N 0,0
04.08.2020 15:00:00 19,6 14,2 14 8 21 12 NNE 0,0
04.08.2020 14:00:00 19,6 14,4 17 9 23 12 NNE -
04.08.2020 13:00:00 19,0 14,2 18 10 25 13 NNE 0,0
04.08.2020 12:00:00 19,3 15,0 23 12 28 15 NNE 0,0
04.08.2020 11:00:00 18,7 15,2 18 10 24 13 NNE 0,0
04.08.2020 10:00:00 17,6 14,9 16 9 26 14 NE 0,0
04.08.2020 09:00:00 16,6 13,9 17 9 28 15 NNE 0,0
04.08.2020 08:00:00 16,4 13,7 21 11 27 15 NNE -
04.08.2020 07:00:00 16,6 13,9 15 8 23 13 NE 0,0
04.08.2020 06:00:00 16,4 13,7 18 10 23 13 NNE 0,0
04.08.2020 05:00:00 16,3 13,6 16 9 27 15 NNE 0,0
04.08.2020 04:00:00 16,4 13,7 16 9 26 14 NE 0,0
04.08.2020 03:00:00 16,4 13,7 16 9 23 12 N 0,2
04.08.2020 02:00:00 16,5 13,8 16 9 25 13 NNE -
04.08.2020 01:00:00 16,6 13,9 19 10 24 13 NNE 0,0
04.08.2020 00:00:00 16,8 13,9 21 11 25 13 NNE 0,0
03.08.2020 23:00:00 17,4 14,3 8 5 11 6 NNE 0,0
03.08.2020 22:00:00 17,6 14,3 9 5 14 8 NNE 0,0
03.08.2020 21:00:00 17,5 14,2 9 5 16 8 NE 0,0
03.08.2020 20:00:00 17,8 14,5 10 5 14 8 NNE -
03.08.2020 19:00:00 18,1 14,0 13 7 20 11 N 0,1
03.08.2020 18:00:00 19,1 13,9 7 4 13 7 W 0,0
03.08.2020 17:00:00 19,7 14,3 5 3 12 7 WSW 0,0
03.08.2020 16:00:00 20,0 14,3 7 4 14 8 WSW 0,0
03.08.2020 15:00:00 19,5 14,3 10 6 16 8 SW 0,0
03.08.2020 14:00:00 18,5 13,4 11 6 19 10 SW -
03.08.2020 13:00:00 18,4 13,5 13 7 18 10 SSW 0,0
03.08.2020 12:00:00 17,9 13,2 11 6 18 10 S 0,0
03.08.2020 11:00:00 17,7 13,1 11 6 20 11 SSW 0,0
03.08.2020 10:00:00 16,6 11,9 16 9 22 12 SSW 0,0
03.08.2020 09:00:00 16,6 11,8 14 7 19 10 S 0,0
03.08.2020 08:00:00 16,5 11,7 11 6 15 8 S -
03.08.2020 07:00:00 16,8 11,9 6 4 16 9 SSE 0,0
03.08.2020 06:00:00 15,9 11,9 13 7 18 10 SE 0,0
03.08.2020 05:00:00 15,4 11,3 11 6 16 9 SE 0,0
03.08.2020 04:00:00 15,3 11,1 11 6 14 7 SE 0,0
03.08.2020 03:00:00 16,2 12,0 0 0 4 2 NNE 0,0
03.08.2020 02:00:00 16,2 12,0 1 1 5 3 NNE -
03.08.2020 01:00:00 16,1 11,9 3 2 13 7 NNE 0,0
03.08.2020 00:00:00 16,1 12,1 12 6 18 10 NNE 0,0
02.08.2020 23:00:00 15,8 11,8 12 6 21 12 NNE 0,0
02.08.2020 22:00:00 16,5 12,0 19 10 22 12 NE 0,0
02.08.2020 21:00:00 16,9 12,0 16 8 19 10 NNE 0,0
02.08.2020 20:00:00 17,6 11,9 17 9 21 11 NNE -
02.08.2020 19:00:00 18,1 11,9 16 9 22 12 NNE 0,0
02.08.2020 18:00:00 19,0 12,2 16 9 20 11 N 0,0
02.08.2020 17:00:00 19,1 12,3 16 9 23 12 NNE 0,0
02.08.2020 16:00:00 19,4 12,4 16 8 19 11 N 0,0
02.08.2020 15:00:00 19,6 13,1 17 9 22 12 NNE 0,0
02.08.2020 14:00:00 18,6 12,5 17 9 22 12 NNE -
02.08.2020 13:00:00 18,8 13,5 14 8 22 12 NNE 0,0
02.08.2020 12:00:00 18,7 13,6 19 10 26 14 NNE 0,0
02.08.2020 11:00:00 16,9 12,8 22 12 28 15 NNE 0,0
02.08.2020 10:00:00 17,2 13,2 23 12 29 16 NNE 0,0
02.08.2020 09:00:00 16,2 13,0 20 11 27 15 NNE 0,0
02.08.2020 08:00:00 16,0 12,7 19 10 25 14 NE -
02.08.2020 07:00:00 16,0 12,7 19 11 28 15 NE 0,0
02.08.2020 06:00:00 15,9 12,6 19 11 28 15 NE 0,0
02.08.2020 05:00:00 15,5 12,2 17 9 32 17 NE 0,0
02.08.2020 04:00:00 15,7 12,4 23 12 29 16 NE 0,0
02.08.2020 03:00:00 16,0 12,7 24 13 31 17 NE 0,0
02.08.2020 02:00:00 15,8 12,3 23 12 34 18 NE -
02.08.2020 01:00:00 16,0 12,7 27 15 32 18 NE 0,0
02.08.2020 00:00:00 15,7 12,4 24 13 29 16 NNE 0,0
01.08.2020 23:00:00 15,8 12,3 24 13 29 15 NNE 0,0
01.08.2020 22:00:00 16,0 12,2 24 13 30 16 NNE 0,0
01.08.2020 21:00:00 17,6 13,0 24 13 32 17 NNE 0,0
01.08.2020 20:00:00 18,4 13,1 26 14 31 17 NNE -
01.08.2020 19:00:00 19,1 13,5 23 12 26 14 NNE 0,0
01.08.2020 18:00:00 19,6 13,6 18 10 23 12 NNE 0,0
01.08.2020 17:00:00 20,2 14,1 18 10 21 11 NNE 0,0
01.08.2020 16:00:00 20,2 14,3 15 8 18 10 N 0,0
01.08.2020 15:00:00 19,9 14,9 11 6 14 7 NNE 0,0
01.08.2020 14:00:00 18,8 14,7 9 5 15 8 NNE -
01.08.2020 13:00:00 18,3 15,0 7 4 12 6 NNE 0,0
01.08.2020 12:00:00 18,3 15,3 9 5 12 7 N 0,0
01.08.2020 11:00:00 18,1 15,2 7 4 13 7 N 0,0
01.08.2020 10:00:00 17,3 14,6 0 0 13 7 N 0,0
01.08.2020 09:00:00 16,5 13,8 7 4 10 6 NE 0,0
01.08.2020 08:00:00 16,3 13,6 8 4 15 8 ENE -
01.08.2020 07:00:00 16,8 14,0 9 5 18 10 NE 0,0
01.08.2020 06:00:00 16,3 13,6 6 3 9 5 NE 0,0
01.08.2020 05:00:00 16,4 13,7 5 3 11 6 NE 0,0
01.08.2020 04:00:00 16,7 13,8 8 4 13 7 NE 0,0
01.08.2020 03:00:00 16,7 13,7 6 3 13 7 NNE 0,0
01.08.2020 02:00:00 17,5 14,4 9 5 15 8 NE -

tt = temperature
td = dewpoint
ff = wind speed
fx = gusts
dd = wind direction
rr = precipitation

Next stations